createdAt,value
2017-11-05T00:01:29.944Z,8.59
2017-11-05T00:04:04.456Z,8.50
2017-11-05T00:06:39.058Z,8.58
2017-11-05T00:09:13.598Z,8.64
2017-11-05T00:11:48.093Z,8.52
2017-11-05T00:14:22.643Z,8.49
2017-11-05T00:16:57.151Z,8.52
2017-11-05T00:19:31.627Z,8.56
2017-11-05T00:22:06.047Z,8.38
2017-11-05T00:24:40.482Z,8.42
2017-11-05T00:27:15.087Z,8.45
2017-11-05T00:29:49.486Z,8.39
2017-11-05T00:32:23.999Z,8.46
2017-11-05T00:34:58.398Z,8.50
2017-11-05T00:37:32.884Z,8.48
2017-11-05T00:40:10.790Z,8.38
2017-11-05T00:42:45.316Z,8.36
2017-11-05T00:45:19.846Z,8.28
2017-11-05T00:47:54.470Z,8.29
2017-11-05T00:50:28.927Z,8.20
2017-11-05T00:53:03.634Z,8.24
2017-11-05T00:55:38.075Z,8.23
2017-11-05T00:58:12.500Z,8.27
2017-11-05T01:00:46.899Z,8.27
2017-11-05T01:03:21.549Z,8.35
2017-11-05T01:05:56.090Z,8.31
2017-11-05T01:08:30.627Z,8.28
2017-11-05T01:11:05.147Z,8.27
2017-11-05T01:13:39.813Z,8.20
2017-11-05T01:16:14.344Z,8.07
2017-11-05T01:18:48.966Z,8.13
2017-11-05T01:21:23.380Z,8.19
2017-11-05T01:23:57.969Z,8.18
2017-11-05T01:26:32.393Z,8.14
2017-11-05T01:29:07.074Z,8.16
2017-11-05T01:31:41.605Z,8.17
2017-11-05T01:34:16.164Z,8.23
2017-11-05T01:36:50.588Z,8.17
2017-11-05T01:39:25.031Z,7.75
2017-11-05T01:41:59.459Z,8.35
2017-11-05T01:44:34.015Z,8.28
2017-11-05T01:47:09.135Z,8.24
2017-11-05T01:49:43.710Z,8.23
2017-11-05T01:52:17.903Z,8.27
2017-11-05T01:54:52.627Z,8.32
2017-11-05T01:57:27.031Z,8.35
2017-11-05T02:00:01.475Z,8.43
2017-11-05T02:02:35.682Z,8.37
2017-11-05T02:05:14.943Z,8.40
2017-11-05T02:07:49.230Z,8.44
2017-11-05T02:10:23.350Z,8.49
2017-11-05T02:12:58.569Z,8.47
2017-11-05T02:15:33.688Z,8.45
2017-11-05T02:18:08.154Z,8.46
2017-11-05T02:20:42.279Z,8.42
2017-11-05T02:23:16.529Z,8.46
2017-11-05T02:25:51.726Z,8.45
2017-11-05T02:28:25.997Z,8.11
2017-11-05T02:31:00.058Z,8.39
2017-11-05T02:33:34.461Z,8.34
2017-11-05T02:36:08.608Z,8.44
2017-11-05T02:38:43.158Z,8.35
2017-11-05T02:41:17.598Z,8.37
2017-11-05T02:43:52.130Z,8.35
2017-11-05T02:46:26.243Z,8.30
2017-11-05T02:49:00.421Z,8.26
2017-11-05T02:51:34.620Z,8.22
2017-11-05T02:54:09.132Z,8.36
2017-11-05T02:56:43.747Z,8.34
2017-11-05T02:59:17.960Z,8.36
2017-11-05T03:01:52.385Z,8.39
2017-11-05T03:04:27.735Z,8.26
2017-11-05T03:07:01.972Z,8.32
2017-11-05T03:09:36.014Z,8.28
2017-11-05T03:12:10.156Z,8.32
2017-11-05T03:14:44.257Z,8.35
2017-11-05T03:17:18.350Z,8.28
2017-11-05T03:19:52.391Z,8.24
2017-11-05T03:22:26.451Z,8.29
2017-11-05T03:25:00.691Z,8.23
2017-11-05T03:27:34.821Z,8.15
2017-11-05T03:30:08.892Z,8.17
2017-11-05T03:32:43.385Z,8.11
2017-11-05T03:35:17.497Z,8.29
2017-11-05T03:37:51.694Z,8.16
2017-11-05T03:40:25.770Z,8.10
2017-11-05T03:42:59.911Z,8.19
2017-11-05T03:45:34.049Z,8.18
2017-11-05T03:48:08.272Z,8.05
2017-11-05T03:50:42.395Z,8.01
2017-11-05T03:53:16.462Z,8.15
2017-11-05T03:55:50.506Z,8.17
2017-11-05T03:58:24.552Z,7.97
2017-11-05T04:00:58.834Z,8.03
2017-11-05T04:03:33.256Z,8.00
2017-11-05T04:06:07.290Z,7.68
2017-11-05T04:08:41.583Z,7.65
2017-11-05T04:11:16.045Z,7.80
2017-11-05T04:13:50.551Z,7.66
2017-11-05T04:16:25.182Z,7.83
2017-11-05T04:18:59.436Z,7.58
2017-11-05T04:21:33.478Z,7.55
2017-11-05T04:24:07.856Z,7.59
2017-11-05T04:26:42.514Z,7.57
2017-11-05T04:29:17.096Z,7.60
2017-11-05T04:31:51.238Z,7.40
2017-11-05T04:34:25.287Z,7.61
2017-11-05T04:36:59.415Z,7.65
2017-11-05T04:39:33.550Z,7.74
2017-11-05T04:42:08.023Z,7.98
2017-11-05T04:44:42.703Z,8.14
2017-11-05T04:47:17.606Z,8.07
2017-11-05T04:49:51.968Z,7.76
2017-11-05T04:52:26.023Z,7.60
2017-11-05T04:55:00.609Z,7.98
2017-11-05T04:57:34.724Z,7.95
2017-11-05T05:00:12.146Z,7.16
2017-11-05T05:02:46.369Z,7.85
2017-11-05T05:05:20.870Z,7.75
2017-11-05T05:07:55.253Z,7.79
2017-11-05T05:10:29.385Z,7.92
2017-11-05T05:13:04.058Z,8.02
2017-11-05T05:15:38.158Z,7.89
2017-11-05T05:18:12.421Z,7.93
2017-11-05T05:20:46.550Z,8.02
2017-11-05T05:23:20.957Z,8.06
2017-11-05T05:25:55.432Z,8.14
2017-11-05T05:28:29.983Z,8.20
2017-11-05T05:31:04.087Z,8.22
2017-11-05T05:33:38.231Z,8.28
2017-11-05T05:36:12.382Z,8.25
2017-11-05T05:38:46.547Z,8.29
2017-11-05T05:41:21.035Z,8.38
2017-11-05T05:43:55.287Z,8.28
2017-11-05T05:46:30.152Z,8.37
2017-11-05T05:49:04.696Z,8.26
2017-11-05T05:51:38.798Z,8.32
2017-11-05T05:54:13.222Z,8.35
2017-11-05T05:56:47.718Z,8.36
2017-11-05T05:59:21.944Z,8.37
2017-11-05T06:01:56.020Z,8.55
2017-11-05T06:04:30.124Z,8.55
2017-11-05T06:07:04.351Z,8.51
2017-11-05T06:09:38.777Z,8.34
2017-11-05T06:12:12.991Z,8.41
2017-11-05T06:14:47.151Z,8.42
2017-11-05T06:17:22.597Z,8.51
2017-11-05T06:19:56.894Z,8.44
2017-11-05T06:22:30.927Z,8.45
2017-11-05T06:25:13.767Z,8.45
2017-11-05T06:27:47.862Z,8.41
2017-11-05T06:30:22.098Z,8.48
2017-11-05T06:32:56.208Z,8.78
2017-11-05T06:35:30.935Z,8.83
2017-11-05T06:38:05.048Z,8.58
2017-11-05T06:40:39.242Z,8.61
2017-11-05T06:43:13.770Z,8.60
2017-11-05T06:45:47.849Z,8.67
2017-11-05T06:48:22.137Z,8.67
2017-11-05T06:50:56.255Z,8.63
2017-11-05T06:53:30.399Z,8.61
2017-11-05T06:56:04.843Z,8.68
2017-11-05T06:58:39.458Z,8.64
2017-11-05T07:01:13.678Z,8.89
2017-11-05T07:03:47.828Z,8.92
2017-11-05T07:06:21.967Z,8.87
2017-11-05T07:08:56.546Z,8.66
2017-11-05T07:11:30.412Z,8.73
2017-11-05T07:14:04.572Z,8.69
2017-11-05T07:16:38.767Z,8.65
2017-11-05T07:19:12.820Z,8.77
2017-11-05T07:21:47.522Z,8.71
2017-11-05T07:24:21.731Z,8.75
2017-11-05T07:26:55.790Z,8.81
2017-11-05T07:29:30.054Z,8.85
2017-11-05T07:32:04.223Z,8.89
2017-11-05T07:34:38.462Z,8.89
2017-11-05T07:37:13.103Z,8.87
2017-11-05T07:39:47.330Z,8.92
2017-11-05T07:42:21.958Z,8.85
2017-11-05T07:44:56.258Z,9.00
2017-11-05T07:47:30.461Z,8.96
2017-11-05T07:50:07.389Z,8.95
2017-11-05T07:52:41.577Z,8.97
2017-11-05T07:55:16.106Z,9.03
2017-11-05T07:57:50.929Z,9.08
2017-11-05T08:00:25.248Z,9.08
2017-11-05T08:03:01.891Z,9.14
2017-11-05T08:05:36.407Z,9.40
2017-11-05T08:08:10.655Z,9.46
2017-11-05T08:10:45.027Z,9.65
2017-11-05T08:13:19.218Z,9.48
2017-11-05T08:15:53.255Z,9.40
2017-11-05T08:18:27.440Z,9.52
2017-11-05T08:21:01.522Z,9.49
2017-11-05T08:23:35.686Z,9.37
2017-11-05T08:26:10.274Z,9.46
2017-11-05T08:28:44.984Z,9.30
2017-11-05T08:31:19.536Z,9.27
2017-11-05T08:33:53.962Z,9.31
2017-11-05T08:36:28.470Z,9.40
2017-11-05T08:39:02.883Z,9.38
2017-11-05T08:41:36.950Z,9.35
2017-11-05T08:44:10.991Z,9.41
2017-11-05T08:46:45.407Z,9.32
2017-11-05T08:49:19.986Z,9.32
2017-11-05T08:51:54.538Z,9.37
2017-11-05T08:54:29.004Z,9.50
2017-11-05T08:57:03.451Z,9.40
2017-11-05T08:59:37.834Z,9.49
2017-11-05T09:02:12.107Z,9.58
2017-11-05T09:04:46.716Z,9.21
2017-11-05T09:07:21.083Z,9.60
2017-11-05T09:09:55.682Z,9.64
2017-11-05T09:12:30.355Z,9.69
2017-11-05T09:15:11.542Z,9.83
2017-11-05T09:17:46.108Z,9.82
2017-11-05T09:20:21.219Z,9.85
2017-11-05T09:22:55.883Z,9.91
2017-11-05T09:25:29.967Z,9.90
2017-11-05T09:28:04.586Z,10.03
2017-11-05T09:30:39.084Z,9.99
2017-11-05T09:33:13.239Z,10.04
2017-11-05T09:35:47.628Z,10.07
2017-11-05T09:38:22.255Z,10.18
2017-11-05T09:40:56.669Z,10.17
2017-11-05T09:43:31.277Z,10.18
2017-11-05T09:46:05.870Z,10.23
2017-11-05T09:48:40.415Z,10.38
2017-11-05T09:51:14.927Z,10.34
2017-11-05T09:53:49.594Z,10.47
2017-11-05T09:56:24.014Z,10.46
2017-11-05T09:58:58.599Z,10.43
2017-11-05T10:01:33.079Z,10.46
2017-11-05T10:04:07.699Z,10.54
2017-11-05T10:06:42.117Z,10.69
2017-11-05T10:09:16.775Z,10.66
2017-11-05T10:11:51.256Z,10.84
2017-11-05T10:14:25.807Z,11.02
2017-11-05T10:17:00.230Z,10.88
2017-11-05T10:19:34.875Z,10.97
2017-11-05T10:22:09.282Z,11.10
2017-11-05T10:24:43.877Z,11.12
2017-11-05T10:27:18.286Z,11.03
2017-11-05T10:29:52.843Z,11.15
2017-11-05T10:32:27.316Z,11.19
2017-11-05T10:35:01.843Z,11.29
2017-11-05T10:37:36.419Z,11.47
2017-11-05T10:40:11.587Z,11.53
2017-11-05T10:42:46.076Z,11.57
2017-11-05T10:45:20.522Z,11.69
2017-11-05T10:47:54.942Z,11.73
2017-11-05T10:50:29.942Z,11.79
2017-11-05T10:53:04.464Z,11.77
2017-11-05T10:55:38.907Z,11.97
2017-11-05T10:58:13.532Z,12.08
2017-11-05T11:00:47.965Z,12.29
2017-11-05T11:03:22.490Z,12.62
2017-11-05T11:05:56.986Z,12.73
2017-11-05T11:08:31.542Z,13.24
2017-11-05T11:11:05.984Z,-142.93
2017-11-05T11:13:40.523Z,-142.93
2017-11-05T11:16:14.963Z,-142.93
2017-11-05T11:18:49.534Z,-142.93
2017-11-05T11:21:23.959Z,-142.93
2017-11-05T11:23:58.385Z,-142.93
2017-11-05T11:26:32.863Z,-142.93
2017-11-05T11:29:07.299Z,-142.93
2017-11-05T11:31:41.746Z,-142.93
2017-11-05T11:34:16.274Z,-142.93
2017-11-05T11:36:50.797Z,-142.93
2017-11-05T11:39:25.452Z,-142.93
2017-11-05T11:41:59.941Z,-142.93
2017-11-05T11:44:34.508Z,-142.93
2017-11-05T11:47:09.408Z,-142.93
2017-11-05T11:49:43.950Z,-142.93
2017-11-05T11:52:18.471Z,-142.93
2017-11-05T11:54:53.002Z,-142.93
2017-11-05T11:57:27.473Z,-142.93
2017-11-05T12:00:02.098Z,-142.93
2017-11-05T12:02:36.198Z,-142.93
2017-11-05T12:05:16.094Z,-142.93
2017-11-05T12:07:50.720Z,-142.93
2017-11-05T12:10:24.984Z,-142.93
2017-11-05T12:12:59.413Z,-142.93
2017-11-05T12:15:33.863Z,-142.93
2017-11-05T12:18:08.463Z,-142.93
2017-11-05T12:20:42.927Z,-142.93
2017-11-05T12:23:17.338Z,-142.93
2017-11-05T12:25:51.946Z,-142.93
2017-11-05T12:28:26.564Z,-142.93
2017-11-05T12:31:01.052Z,-142.93
2017-11-05T12:33:35.485Z,-142.93
2017-11-05T12:36:09.652Z,-142.93
2017-11-05T12:38:44.290Z,-142.93
2017-11-05T12:41:18.780Z,-142.93
2017-11-05T12:43:53.442Z,-142.93
2017-11-05T12:46:28.248Z,-142.93
2017-11-05T12:49:02.792Z,-142.93
2017-11-05T12:51:37.267Z,-142.93
2017-11-05T12:54:11.839Z,-142.93
2017-11-05T12:56:46.289Z,-142.93
2017-11-05T12:59:20.836Z,-142.93
2017-11-05T13:01:55.668Z,-142.93
2017-11-05T13:04:30.208Z,-142.93
2017-11-05T13:07:04.344Z,-142.93
2017-11-05T13:09:39.008Z,-142.93
2017-11-05T13:12:13.447Z,-142.93
2017-11-05T13:14:47.896Z,-142.93
2017-11-05T13:17:22.347Z,-142.93
2017-11-05T13:19:56.811Z,-142.93
2017-11-05T13:22:31.338Z,-142.93
2017-11-05T13:25:14.718Z,-142.93
2017-11-05T13:27:49.114Z,-142.93
2017-11-05T13:30:23.638Z,-142.93
2017-11-05T13:32:58.072Z,-142.93
2017-11-05T13:35:32.474Z,-142.93
2017-11-05T13:38:06.916Z,-142.93
2017-11-05T13:40:41.714Z,-142.93
2017-11-05T13:43:16.584Z,-142.93
2017-11-05T13:45:51.068Z,-142.93
2017-11-05T13:48:25.814Z,-142.93
2017-11-05T13:51:00.284Z,-142.93
2017-11-05T13:53:34.827Z,-142.93
2017-11-05T13:56:09.471Z,-142.93
2017-11-05T13:58:44.096Z,-142.93
2017-11-05T14:01:18.175Z,-142.93
2017-11-05T14:03:52.721Z,-142.93
2017-11-05T14:06:27.138Z,-142.93
2017-11-05T14:09:01.710Z,-142.93
2017-11-05T14:11:36.240Z,-142.93
2017-11-05T14:14:10.865Z,-142.93
2017-11-05T14:16:45.110Z,-142.93
2017-11-05T14:19:19.642Z,-142.93
2017-11-05T14:21:53.787Z,-142.93
2017-11-05T14:24:28.338Z,-142.93
2017-11-05T14:27:02.771Z,-142.93
2017-11-05T14:29:37.372Z,-142.93
2017-11-05T14:32:11.775Z,-142.93
2017-11-05T14:34:46.523Z,-142.93
2017-11-05T14:37:20.947Z,-142.93
2017-11-05T14:39:55.443Z,-142.93
2017-11-05T14:42:29.951Z,-142.93
2017-11-05T14:47:45.036Z,-142.93
2017-11-05T14:50:18.914Z,-142.93
2017-11-05T14:52:53.458Z,-142.93
2017-11-05T14:55:27.919Z,-142.93
2017-11-05T14:58:02.186Z,-142.93
2017-11-05T15:00:36.389Z,-142.93
2017-11-05T15:03:10.873Z,-142.93
2017-11-05T15:05:45.194Z,-142.93
2017-11-05T15:08:19.790Z,-142.93
2017-11-05T15:10:54.230Z,-142.93
2017-11-05T15:13:28.833Z,-142.93
2017-11-05T15:16:03.242Z,-142.93
2017-11-05T15:18:38.623Z,-142.93
2017-11-05T15:21:13.223Z,-142.93
2017-11-05T15:23:47.814Z,-142.93
2017-11-05T15:26:22.362Z,-142.93
2017-11-05T15:28:57.023Z,-142.93
2017-11-05T15:31:31.438Z,-142.93
2017-11-05T15:34:05.700Z,-142.93
2017-11-05T15:36:40.128Z,-142.93
2017-11-05T15:39:14.361Z,-142.93
2017-11-05T15:41:48.877Z,-142.93
2017-11-05T15:44:23.399Z,-142.93
2017-11-05T15:46:57.876Z,-142.93
2017-11-05T15:49:32.428Z,-142.93
2017-11-05T15:52:06.666Z,-142.93
2017-11-05T15:54:41.080Z,-142.93
2017-11-05T15:57:15.636Z,-142.93
2017-11-05T15:59:50.271Z,-142.93
2017-11-05T16:02:24.794Z,-142.93
2017-11-05T16:04:59.380Z,-142.93
2017-11-05T16:07:33.845Z,-142.93
2017-11-05T16:10:13.471Z,-142.93
2017-11-05T16:12:48.360Z,-142.93
2017-11-05T16:15:22.894Z,-142.93
2017-11-05T16:17:57.523Z,-142.93
2017-11-05T16:20:31.943Z,-142.93
2017-11-05T16:23:06.406Z,-142.93
2017-11-05T16:25:41.091Z,-142.93
2017-11-05T16:28:15.667Z,-142.93
2017-11-05T16:30:50.315Z,-142.93
2017-11-05T16:33:24.782Z,-142.93
2017-11-05T16:35:59.223Z,-142.93
2017-11-05T16:38:34.147Z,-142.93
2017-11-05T16:41:09.274Z,-142.93
2017-11-05T16:43:43.824Z,-142.93
2017-11-05T16:46:18.265Z,-142.93
2017-11-05T16:48:52.891Z,-142.93
2017-11-05T16:51:28.914Z,-142.93
2017-11-05T16:54:03.521Z,-142.93
2017-11-05T16:56:38.021Z,-142.93
2017-11-05T16:59:12.523Z,-142.93
2017-11-05T17:01:47.015Z,-142.93
2017-11-05T17:04:21.716Z,-142.93
2017-11-05T17:06:55.837Z,-142.93
2017-11-05T17:09:30.408Z,-142.93
2017-11-05T17:12:04.823Z,-142.93
2017-11-05T17:14:39.386Z,-142.93
2017-11-05T17:17:14.324Z,-142.93
2017-11-05T17:19:48.876Z,-142.93
2017-11-05T17:22:23.365Z,-142.93
2017-11-05T17:24:57.948Z,-142.93
2017-11-05T17:27:32.411Z,-142.93
2017-11-05T17:30:13.902Z,-142.93
2017-11-05T17:32:48.529Z,-142.93
2017-11-05T17:35:22.373Z,-142.93
2017-11-05T17:37:57.088Z,-142.93
2017-11-05T17:40:31.534Z,-142.93
2017-11-05T17:43:06.178Z,-142.93
2017-11-05T17:45:40.631Z,-142.93
2017-11-05T17:48:15.262Z,-142.93
2017-11-05T17:50:49.747Z,-142.93
2017-11-05T17:53:24.179Z,-142.93
2017-11-05T17:55:58.730Z,-142.93
2017-11-05T17:58:33.324Z,-142.93
2017-11-05T18:01:07.796Z,-142.93
2017-11-05T18:03:42.454Z,-142.93
2017-11-05T18:06:16.908Z,-142.93
2017-11-05T18:08:51.452Z,13.86
2017-11-05T18:11:25.947Z,13.83
2017-11-05T18:14:00.523Z,13.80
2017-11-05T18:16:35.006Z,13.84
2017-11-05T18:19:09.561Z,13.88
2017-11-05T18:21:44.030Z,13.82
2017-11-05T18:24:18.628Z,13.85
2017-11-05T18:26:53.022Z,13.84
2017-11-05T18:29:27.578Z,13.80
2017-11-05T18:32:02.070Z,13.75
2017-11-05T18:34:36.691Z,13.72
2017-11-05T18:37:11.084Z,13.68
2017-11-05T18:39:45.476Z,13.64
2017-11-05T18:42:19.951Z,13.44
2017-11-05T18:44:54.555Z,13.29
2017-11-05T18:47:29.158Z,13.26
2017-11-05T18:52:44.486Z,13.48
2017-11-05T18:55:18.878Z,13.68
2017-11-05T18:57:53.481Z,13.57
2017-11-05T19:00:27.622Z,13.62
2017-11-05T19:03:02.027Z,13.49
2017-11-05T19:05:37.021Z,13.43
2017-11-05T19:08:11.555Z,13.41
2017-11-05T19:10:45.963Z,13.41
2017-11-05T19:13:20.547Z,13.34
2017-11-05T19:15:55.298Z,13.24
2017-11-05T19:18:29.750Z,13.22
2017-11-05T19:21:04.226Z,13.26
2017-11-05T19:23:38.699Z,13.22
2017-11-05T19:26:13.085Z,13.24
2017-11-05T19:28:47.643Z,12.92
2017-11-05T19:31:22.038Z,13.22
2017-11-05T19:33:56.717Z,13.18
2017-11-05T19:36:32.032Z,13.10
2017-11-05T19:39:06.603Z,13.14
2017-11-05T19:41:40.996Z,13.17
2017-11-05T19:44:15.503Z,13.11
2017-11-05T19:46:49.965Z,13.19
2017-11-05T19:49:24.537Z,13.11
2017-11-05T19:51:58.910Z,13.15
2017-11-05T19:54:33.223Z,13.18
2017-11-05T19:57:07.725Z,13.12
2017-11-05T19:59:45.321Z,13.12
2017-11-05T20:02:19.739Z,13.09
2017-11-05T20:04:54.255Z,13.10
2017-11-05T20:07:28.646Z,13.03
2017-11-05T20:10:10.327Z,13.02
2017-11-05T20:12:44.862Z,13.04
2017-11-05T20:15:19.286Z,13.00
2017-11-05T20:17:54.067Z,13.09
2017-11-05T20:20:28.531Z,12.92
2017-11-05T20:23:03.038Z,13.00
2017-11-05T20:25:37.474Z,12.97
2017-11-05T20:28:12.154Z,12.78
2017-11-05T20:30:46.570Z,12.83
2017-11-05T20:33:21.990Z,12.84
2017-11-05T20:35:56.587Z,12.89
2017-11-05T20:38:31.181Z,12.91
2017-11-05T20:41:05.591Z,12.95
2017-11-05T20:43:40.214Z,12.95
2017-11-05T20:46:14.711Z,12.87
2017-11-05T20:48:49.551Z,12.72
2017-11-05T20:51:24.059Z,12.93
2017-11-05T20:53:58.587Z,12.95
2017-11-05T20:56:33.067Z,12.66
2017-11-05T20:59:07.596Z,12.76
2017-11-05T21:01:42.110Z,12.41
2017-11-05T21:04:16.519Z,12.42
2017-11-05T21:06:51.619Z,12.33
2017-11-05T21:09:26.406Z,12.08
2017-11-05T21:12:00.867Z,12.22
2017-11-05T21:14:35.470Z,12.21
2017-11-05T21:17:09.853Z,12.24
2017-11-05T21:19:45.933Z,12.26
2017-11-05T21:22:20.457Z,12.38
2017-11-05T21:24:55.082Z,12.41
2017-11-05T21:27:29.579Z,12.38
2017-11-05T21:30:10.105Z,12.48
2017-11-05T21:32:44.287Z,12.19
2017-11-05T21:35:18.687Z,12.10
2017-11-05T21:37:53.291Z,12.05
2017-11-05T21:40:30.557Z,11.99
2017-11-05T21:43:05.613Z,12.07
2017-11-05T21:45:40.067Z,12.07
2017-11-05T21:48:14.586Z,11.75
2017-11-05T21:50:49.158Z,11.76
2017-11-05T21:53:23.746Z,11.79
2017-11-05T21:56:01.297Z,11.76
2017-11-05T21:58:35.770Z,11.79
2017-11-05T22:01:10.159Z,11.81
2017-11-05T22:03:44.830Z,11.84
2017-11-05T22:06:19.235Z,11.75
2017-11-05T22:08:53.827Z,11.71
2017-11-05T22:11:28.423Z,11.72
2017-11-05T22:14:02.925Z,11.76
2017-11-05T22:16:37.372Z,11.76
2017-11-05T22:19:11.916Z,11.80
2017-11-05T22:21:46.317Z,11.62
2017-11-05T22:24:20.835Z,11.42
2017-11-05T22:26:55.287Z,11.25
2017-11-05T22:29:29.883Z,11.29
2017-11-05T22:32:04.329Z,11.19
2017-11-05T22:34:38.910Z,11.33
2017-11-05T22:37:13.598Z,11.34
2017-11-05T22:39:48.251Z,11.45
2017-11-05T22:42:22.789Z,11.28
2017-11-05T22:44:57.399Z,11.30
2017-11-05T22:47:31.935Z,11.25
2017-11-05T22:50:08.567Z,11.22
2017-11-05T22:52:43.426Z,11.29
2017-11-05T22:55:17.882Z,11.18
2017-11-05T22:57:52.534Z,11.30
2017-11-05T23:00:27.010Z,11.25
2017-11-05T23:03:01.658Z,11.10
2017-11-05T23:05:36.054Z,11.01
2017-11-05T23:08:10.455Z,11.01
2017-11-05T23:10:45.523Z,11.04
2017-11-05T23:13:20.090Z,11.09
2017-11-05T23:15:54.578Z,11.06
2017-11-05T23:18:29.027Z,10.97
2017-11-05T23:21:03.556Z,11.03
2017-11-05T23:23:38.060Z,11.08
2017-11-05T23:26:12.474Z,11.15
2017-11-05T23:28:47.058Z,11.20
2017-11-05T23:31:21.679Z,11.21
2017-11-05T23:33:56.063Z,10.93
2017-11-05T23:36:30.490Z,10.94
2017-11-05T23:39:04.511Z,11.00
2017-11-05T23:41:38.887Z,11.08
2017-11-05T23:44:13.561Z,11.06
2017-11-05T23:46:47.978Z,11.16
2017-11-05T23:49:22.569Z,11.16
2017-11-05T23:51:57.083Z,11.12
2017-11-05T23:54:31.562Z,11.05
2017-11-05T23:57:06.121Z,10.90
2017-11-05T23:59:40.779Z,10.97
